sensor_id;sensor_type;location;lat;lon;timestamp;P1;durP1;ratioP1;P2;durP2;ratioP2
23714;SDS011;12036;50.858;4.472;2023-04-01T00:01:38;13.65;;;1.80;;
23714;SDS011;12036;50.858;4.472;2023-04-01T00:04:03;8.50;;;2.13;;
23714;SDS011;12036;50.858;4.472;2023-04-01T00:06:29;10.43;;;1.95;;
23714;SDS011;12036;50.858;4.472;2023-04-01T00:08:55;8.90;;;1.48;;
23714;SDS011;12036;50.858;4.472;2023-04-01T00:11:21;9.63;;;1.73;;
23714;SDS011;12036;50.858;4.472;2023-04-01T00:13:47;8.02;;;1.50;;
23714;SDS011;12036;50.858;4.472;2023-04-01T00:16:13;2.75;;;1.73;;
23714;SDS011;12036;50.858;4.472;2023-04-01T00:18:39;7.80;;;1.73;;
23714;SDS011;12036;50.858;4.472;2023-04-01T00:21:05;10.43;;;2.10;;
23714;SDS011;12036;50.858;4.472;2023-04-01T00:23:31;8.18;;;1.70;;
23714;SDS011;12036;50.858;4.472;2023-04-01T00:26:01;6.85;;;1.50;;
23714;SDS011;12036;50.858;4.472;2023-04-01T00:28:28;5.47;;;1.50;;
23714;SDS011;12036;50.858;4.472;2023-04-01T00:30:54;7.22;;;2.00;;
23714;SDS011;12036;50.858;4.472;2023-04-01T00:33:19;6.28;;;1.35;;
23714;SDS011;12036;50.858;4.472;2023-04-01T00:35:45;8.95;;;1.50;;
23714;SDS011;12036;50.858;4.472;2023-04-01T00:38:12;10.60;;;1.55;;
23714;SDS011;12036;50.858;4.472;2023-04-01T00:40:39;5.55;;;1.40;;
23714;SDS011;12036;50.858;4.472;2023-04-01T00:43:25;5.97;;;1.60;;
23714;SDS011;12036;50.858;4.472;2023-04-01T00:45:50;2.78;;;1.20;;
23714;SDS011;12036;50.858;4.472;2023-04-01T00:48:17;6.65;;;1.40;;
23714;SDS011;12036;50.858;4.472;2023-04-01T00:50:50;8.00;;;1.60;;
23714;SDS011;12036;50.858;4.472;2023-04-01T00:53:20;7.78;;;1.33;;
23714;SDS011;12036;50.858;4.472;2023-04-01T00:55:51;4.10;;;1.20;;
23714;SDS011;12036;50.858;4.472;2023-04-01T00:58:23;5.55;;;1.38;;
23714;SDS011;12036;50.858;4.472;2023-04-01T01:00:51;3.75;;;1.50;;
23714;SDS011;12036;50.858;4.472;2023-04-01T01:03:18;3.13;;;0.95;;
23714;SDS011;12036;50.858;4.472;2023-04-01T01:10:55;6.32;;;1.30;;
23714;SDS011;12036;50.858;4.472;2023-04-01T01:18:53;3.33;;;1.60;;
23714;SDS011;12036;50.858;4.472;2023-04-01T01:37:33;3.45;;;0.85;;
23714;SDS011;12036;50.858;4.472;2023-04-01T01:40:01;2.15;;;0.80;;
23714;SDS011;12036;50.858;4.472;2023-04-01T01:42:30;2.60;;;1.10;;
23714;SDS011;12036;50.858;4.472;2023-04-01T01:44:58;3.58;;;0.73;;
23714;SDS011;12036;50.858;4.472;2023-04-01T01:47:25;2.70;;;0.82;;
23714;SDS011;12036;50.858;4.472;2023-04-01T01:49:52;3.28;;;1.17;;
23714;SDS011;12036;50.858;4.472;2023-04-01T01:52:19;3.20;;;1.20;;
23714;SDS011;12036;50.858;4.472;2023-04-01T01:54:50;2.53;;;1.38;;
23714;SDS011;12036;50.858;4.472;2023-04-01T01:57:20;2.50;;;1.50;;
23714;SDS011;12036;50.858;4.472;2023-04-01T01:59:55;5.13;;;1.50;;
23714;SDS011;12036;50.858;4.472;2023-04-01T02:02:43;2.97;;;1.40;;
23714;SDS011;12036;50.858;4.472;2023-04-01T02:05:11;5.60;;;2.15;;
23714;SDS011;12036;50.858;4.472;2023-04-01T02:08:05;5.13;;;2.55;;
23714;SDS011;12036;50.858;4.472;2023-04-01T02:10:53;6.68;;;2.63;;
23714;SDS011;12036;50.858;4.472;2023-04-01T02:13:25;11.63;;;3.08;;
23714;SDS011;12036;50.858;4.472;2023-04-01T02:16:02;4.65;;;2.25;;
23714;SDS011;12036;50.858;4.472;2023-04-01T02:18:33;10.25;;;2.65;;
23714;SDS011;12036;50.858;4.472;2023-04-01T02:21:02;5.32;;;2.42;;
23714;SDS011;12036;50.858;4.472;2023-04-01T02:23:31;7.35;;;2.78;;
23714;SDS011;12036;50.858;4.472;2023-04-01T02:26:00;6.50;;;3.10;;
23714;SDS011;12036;50.858;4.472;2023-04-01T02:28:28;6.10;;;2.80;;
23714;SDS011;12036;50.858;4.472;2023-04-01T02:30:55;6.63;;;2.55;;
23714;SDS011;12036;50.858;4.472;2023-04-01T02:33:25;6.75;;;2.95;;
23714;SDS011;12036;50.858;4.472;2023-04-01T02:35:52;7.60;;;3.30;;
23714;SDS011;12036;50.858;4.472;2023-04-01T02:38:17;9.30;;;3.78;;
23714;SDS011;12036;50.858;4.472;2023-04-01T02:40:47;4.75;;;3.10;;
23714;SDS011;12036;50.858;4.472;2023-04-01T02:45:41;6.97;;;2.65;;
23714;SDS011;12036;50.858;4.472;2023-04-01T02:48:07;7.07;;;2.17;;
23714;SDS011;12036;50.858;4.472;2023-04-01T02:50:33;10.98;;;2.70;;
23714;SDS011;12036;50.858;4.472;2023-04-01T02:52:59;8.45;;;2.42;;
23714;SDS011;12036;50.858;4.472;2023-04-01T02:55:28;6.15;;;2.30;;
23714;SDS011;12036;50.858;4.472;2023-04-01T02:57:55;11.73;;;2.40;;
23714;SDS011;12036;50.858;4.472;2023-04-01T03:00:21;9.82;;;2.38;;
23714;SDS011;12036;50.858;4.472;2023-04-01T03:02:46;16.58;;;2.53;;
23714;SDS011;12036;50.858;4.472;2023-04-01T03:05:12;6.97;;;2.25;;
23714;SDS011;12036;50.858;4.472;2023-04-01T03:07:38;10.93;;;2.25;;
23714;SDS011;12036;50.858;4.472;2023-04-01T03:10:05;8.50;;;3.03;;
23714;SDS011;12036;50.858;4.472;2023-04-01T03:12:31;8.70;;;3.15;;
23714;SDS011;12036;50.858;4.472;2023-04-01T03:14:58;7.20;;;2.60;;
23714;SDS011;12036;50.858;4.472;2023-04-01T03:17:23;13.10;;;2.60;;
23714;SDS011;12036;50.858;4.472;2023-04-01T03:19:49;5.70;;;2.25;;
23714;SDS011;12036;50.858;4.472;2023-04-01T03:22:14;8.45;;;2.47;;
23714;SDS011;12036;50.858;4.472;2023-04-01T03:24:40;10.18;;;2.85;;
23714;SDS011;12036;50.858;4.472;2023-04-01T03:27:06;4.72;;;2.95;;
23714;SDS011;12036;50.858;4.472;2023-04-01T03:29:31;9.57;;;3.40;;
23714;SDS011;12036;50.858;4.472;2023-04-01T03:31:57;8.77;;;3.63;;
23714;SDS011;12036;50.858;4.472;2023-04-01T03:34:24;5.68;;;3.05;;
23714;SDS011;12036;50.858;4.472;2023-04-01T03:36:50;5.38;;;3.45;;
23714;SDS011;12036;50.858;4.472;2023-04-01T03:39:16;9.30;;;3.50;;
23714;SDS011;12036;50.858;4.472;2023-04-01T03:41:43;9.13;;;4.28;;
23714;SDS011;12036;50.858;4.472;2023-04-01T03:44:10;14.02;;;4.60;;
23714;SDS011;12036;50.858;4.472;2023-04-01T03:46:36;12.48;;;4.38;;
23714;SDS011;12036;50.858;4.472;2023-04-01T03:49:02;11.82;;;4.68;;
23714;SDS011;12036;50.858;4.472;2023-04-01T03:51:36;10.80;;;3.95;;
23714;SDS011;12036;50.858;4.472;2023-04-01T03:54:05;17.25;;;5.45;;
23714;SDS011;12036;50.858;4.472;2023-04-01T03:56:31;14.40;;;4.43;;
23714;SDS011;12036;50.858;4.472;2023-04-01T03:58:57;14.43;;;5.10;;
23714;SDS011;12036;50.858;4.472;2023-04-01T04:01:23;15.68;;;4.40;;
23714;SDS011;12036;50.858;4.472;2023-04-01T04:03:49;15.80;;;4.75;;
23714;SDS011;12036;50.858;4.472;2023-04-01T04:06:16;15.13;;;4.82;;
23714;SDS011;12036;50.858;4.472;2023-04-01T04:08:44;15.85;;;4.70;;
23714;SDS011;12036;50.858;4.472;2023-04-01T04:11:10;12.27;;;4.25;;
23714;SDS011;12036;50.858;4.472;2023-04-01T04:13:36;10.90;;;4.75;;
23714;SDS011;12036;50.858;4.472;2023-04-01T04:16:02;12.45;;;4.60;;
23714;SDS011;12036;50.858;4.472;2023-04-01T04:18:28;12.40;;;4.60;;
23714;SDS011;12036;50.858;4.472;2023-04-01T04:20:54;10.02;;;4.40;;
23714;SDS011;12036;50.858;4.472;2023-04-01T04:23:20;14.25;;;4.85;;
23714;SDS011;12036;50.858;4.472;2023-04-01T04:25:53;8.18;;;4.47;;
23714;SDS011;12036;50.858;4.472;2023-04-01T04:28:23;17.02;;;4.68;;
23714;SDS011;12036;50.858;4.472;2023-04-01T04:30:49;10.15;;;3.88;;
23714;SDS011;12036;50.858;4.472;2023-04-01T04:33:15;6.38;;;3.40;;
23714;SDS011;12036;50.858;4.472;2023-04-01T04:35:40;9.07;;;3.60;;
23714;SDS011;12036;50.858;4.472;2023-04-01T04:38:06;12.98;;;3.38;;
23714;SDS011;12036;50.858;4.472;2023-04-01T04:40:32;8.93;;;3.33;;
23714;SDS011;12036;50.858;4.472;2023-04-01T04:42:57;7.65;;;2.45;;
23714;SDS011;12036;50.858;4.472;2023-04-01T04:45:23;4.90;;;2.20;;
23714;SDS011;12036;50.858;4.472;2023-04-01T04:47:48;5.35;;;2.53;;
23714;SDS011;12036;50.858;4.472;2023-04-01T04:50:14;11.38;;;2.60;;
23714;SDS011;12036;50.858;4.472;2023-04-01T04:52:41;5.30;;;2.13;;
23714;SDS011;12036;50.858;4.472;2023-04-01T04:55:07;6.78;;;2.15;;
23714;SDS011;12036;50.858;4.472;2023-04-01T04:57:33;9.45;;;2.40;;
23714;SDS011;12036;50.858;4.472;2023-04-01T04:59:58;7.15;;;2.13;;
23714;SDS011;12036;50.858;4.472;2023-04-01T05:02:24;5.90;;;2.20;;
23714;SDS011;12036;50.858;4.472;2023-04-01T05:04:50;5.20;;;2.08;;
23714;SDS011;12036;50.858;4.472;2023-04-01T05:07:15;5.10;;;2.38;;
23714;SDS011;12036;50.858;4.472;2023-04-01T05:09:41;5.03;;;2.08;;
23714;SDS011;12036;50.858;4.472;2023-04-01T05:12:07;5.32;;;1.98;;
23714;SDS011;12036;50.858;4.472;2023-04-01T05:14:32;2.17;;;1.40;;
23714;SDS011;12036;50.858;4.472;2023-04-01T05:16:58;3.47;;;1.83;;
23714;SDS011;12036;50.858;4.472;2023-04-01T05:19:23;4.05;;;1.67;;
23714;SDS011;12036;50.858;4.472;2023-04-01T05:21:49;4.80;;;1.88;;
23714;SDS011;12036;50.858;4.472;2023-04-01T05:24:15;3.92;;;1.65;;
23714;SDS011;12036;50.858;4.472;2023-04-01T05:26:41;6.05;;;2.13;;
23714;SDS011;12036;50.858;4.472;2023-04-01T05:29:06;5.38;;;2.13;;
23714;SDS011;12036;50.858;4.472;2023-04-01T05:31:32;5.25;;;2.30;;
23714;SDS011;12036;50.858;4.472;2023-04-01T05:33:57;4.88;;;2.42;;
23714;SDS011;12036;50.858;4.472;2023-04-01T05:36:23;6.70;;;2.80;;
23714;SDS011;12036;50.858;4.472;2023-04-01T05:38:49;4.53;;;2.63;;
23714;SDS011;12036;50.858;4.472;2023-04-01T05:41:15;4.60;;;2.42;;
23714;SDS011;12036;50.858;4.472;2023-04-01T05:43:41;7.05;;;3.17;;
23714;SDS011;12036;50.858;4.472;2023-04-01T05:46:07;8.80;;;3.20;;
23714;SDS011;12036;50.858;4.472;2023-04-01T05:48:33;6.80;;;3.58;;
23714;SDS011;12036;50.858;4.472;2023-04-01T05:51:02;7.43;;;3.42;;
23714;SDS011;12036;50.858;4.472;2023-04-01T05:53:29;8.95;;;3.65;;
23714;SDS011;12036;50.858;4.472;2023-04-01T05:55:55;8.82;;;3.85;;
23714;SDS011;12036;50.858;4.472;2023-04-01T05:58:20;10.32;;;4.38;;
23714;SDS011;12036;50.858;4.472;2023-04-01T06:00:46;8.35;;;3.90;;
23714;SDS011;12036;50.858;4.472;2023-04-01T06:03:12;11.38;;;4.18;;
23714;SDS011;12036;50.858;4.472;2023-04-01T06:05:41;7.60;;;4.13;;
23714;SDS011;12036;50.858;4.472;2023-04-01T06:08:13;9.38;;;4.15;;
23714;SDS011;12036;50.858;4.472;2023-04-01T06:27:07;12.07;;;4.97;;
23714;SDS011;12036;50.858;4.472;2023-04-01T06:32:41;11.10;;;4.70;;
23714;SDS011;12036;50.858;4.472;2023-04-01T06:35:19;10.88;;;5.28;;
23714;SDS011;12036;50.858;4.472;2023-04-01T06:38:06;9.90;;;4.90;;
23714;SDS011;12036;50.858;4.472;2023-04-01T06:40:44;11.88;;;4.75;;
23714;SDS011;12036;50.858;4.472;2023-04-01T06:46:07;9.95;;;4.18;;
23714;SDS011;12036;50.858;4.472;2023-04-01T06:59:59;9.73;;;4.38;;
23714;SDS011;12036;50.858;4.472;2023-04-01T07:02:39;12.48;;;4.95;;
23714;SDS011;12036;50.858;4.472;2023-04-01T07:05:10;9.30;;;4.35;;
23714;SDS011;12036;50.858;4.472;2023-04-01T07:07:39;13.93;;;4.47;;
23714;SDS011;12036;50.858;4.472;2023-04-01T07:10:20;11.95;;;4.00;;
23714;SDS011;12036;50.858;4.472;2023-04-01T07:12:56;7.55;;;3.67;;
23714;SDS011;12036;50.858;4.472;2023-04-01T07:15:30;7.68;;;3.95;;
23714;SDS011;12036;50.858;4.472;2023-04-01T07:18:12;7.45;;;3.80;;
23714;SDS011;12036;50.858;4.472;2023-04-01T07:20:42;8.48;;;3.60;;
23714;SDS011;12036;50.858;4.472;2023-04-01T07:23:21;10.90;;;3.78;;
23714;SDS011;12036;50.858;4.472;2023-04-01T07:25:52;5.80;;;2.40;;
23714;SDS011;12036;50.858;4.472;2023-04-01T07:28:21;5.57;;;2.47;;
23714;SDS011;12036;50.858;4.472;2023-04-01T07:30:52;7.40;;;2.50;;
23714;SDS011;12036;50.858;4.472;2023-04-01T07:36:15;2.47;;;1.80;;
23714;SDS011;12036;50.858;4.472;2023-04-01T07:41:42;2.70;;;1.70;;
23714;SDS011;12036;50.858;4.472;2023-04-01T07:44:16;4.90;;;1.50;;
23714;SDS011;12036;50.858;4.472;2023-04-01T07:47:10;1.63;;;1.35;;
23714;SDS011;12036;50.858;4.472;2023-04-01T07:54:49;1.85;;;1.00;;
23714;SDS011;12036;50.858;4.472;2023-04-01T08:05:08;2.08;;;1.27;;
23714;SDS011;12036;50.858;4.472;2023-04-01T08:08:23;5.90;;;1.88;;
23714;SDS011;12036;50.858;4.472;2023-04-01T08:10:44;2.00;;;1.20;;
23714;SDS011;12036;50.858;4.472;2023-04-01T08:13:39;1.60;;;1.40;;
23714;SDS011;12036;50.858;4.472;2023-04-01T08:21:41;1.48;;;1.10;;
23714;SDS011;12036;50.858;4.472;2023-04-01T08:27:15;1.58;;;1.15;;
23714;SDS011;12036;50.858;4.472;2023-04-01T08:29:47;1.40;;;1.00;;
23714;SDS011;12036;50.858;4.472;2023-04-01T08:32:22;1.17;;;1.05;;
23714;SDS011;12036;50.858;4.472;2023-04-01T08:37:45;0.80;;;0.80;;
23714;SDS011;12036;50.858;4.472;2023-04-01T08:40:48;2.70;;;1.17;;
23714;SDS011;12036;50.858;4.472;2023-04-01T08:48:53;1.42;;;0.90;;
23714;SDS011;12036;50.858;4.472;2023-04-01T08:51:43;2.05;;;1.10;;
23714;SDS011;12036;50.858;4.472;2023-04-01T09:00:14;1.20;;;1.10;;
23714;SDS011;12036;50.858;4.472;2023-04-01T09:02:54;2.35;;;1.08;;
23714;SDS011;12036;50.858;4.472;2023-04-01T09:14:43;1.98;;;0.95;;
23714;SDS011;12036;50.858;4.472;2023-04-01T09:17:37;1.73;;;0.90;;
23714;SDS011;12036;50.858;4.472;2023-04-01T09:25:38;4.20;;;1.52;;
23714;SDS011;12036;50.858;4.472;2023-04-01T09:41:41;3.80;;;1.58;;
23714;SDS011;12036;50.858;4.472;2023-04-01T09:47:43;2.58;;;1.80;;
23714;SDS011;12036;50.858;4.472;2023-04-01T10:04:17;3.42;;;2.08;;
23714;SDS011;12036;50.858;4.472;2023-04-01T10:26:51;4.22;;;2.13;;
23714;SDS011;12036;50.858;4.472;2023-04-01T10:29:31;4.63;;;2.08;;
23714;SDS011;12036;50.858;4.472;2023-04-01T10:37:54;3.05;;;1.58;;
23714;SDS011;12036;50.858;4.472;2023-04-01T10:48:36;3.50;;;2.23;;
23714;SDS011;12036;50.858;4.472;2023-04-01T10:51:23;3.03;;;1.55;;
23714;SDS011;12036;50.858;4.472;2023-04-01T11:19:03;3.05;;;0.93;;
23714;SDS011;12036;50.858;4.472;2023-04-01T11:52:11;1.48;;;1.38;;
23714;SDS011;12036;50.858;4.472;2023-04-01T12:19:16;2.00;;;1.45;;
23714;SDS011;12036;50.858;4.472;2023-04-01T12:21:59;2.55;;;1.75;;
23714;SDS011;12036;50.858;4.472;2023-04-01T12:24:45;2.72;;;1.58;;
23714;SDS011;12036;50.858;4.472;2023-04-01T12:32:49;4.13;;;1.52;;
23714;SDS011;12036;50.858;4.472;2023-04-01T12:41:10;3.67;;;1.53;;
23714;SDS011;12036;50.858;4.472;2023-04-01T12:44:02;2.13;;;1.58;;
23714;SDS011;12036;50.858;4.472;2023-04-01T12:55:18;4.68;;;1.70;;
23714;SDS011;12036;50.858;4.472;2023-04-01T13:06:19;2.60;;;1.80;;
23714;SDS011;12036;50.858;4.472;2023-04-01T13:11:57;1.60;;;1.42;;
23714;SDS011;12036;50.858;4.472;2023-04-01T13:17:10;3.55;;;1.42;;
23714;SDS011;12036;50.858;4.472;2023-04-01T13:19:49;2.08;;;1.48;;
23714;SDS011;12036;50.858;4.472;2023-04-01T13:22:21;2.17;;;1.80;;
23714;SDS011;12036;50.858;4.472;2023-04-01T13:28:18;3.55;;;2.50;;
23714;SDS011;12036;50.858;4.472;2023-04-01T13:30:49;2.38;;;1.50;;
23714;SDS011;12036;50.858;4.472;2023-04-01T13:44:31;1.23;;;0.90;;
23714;SDS011;12036;50.858;4.472;2023-04-01T13:47:41;2.33;;;1.05;;
23714;SDS011;12036;50.858;4.472;2023-04-01T14:17:21;1.75;;;1.20;;
23714;SDS011;12036;50.858;4.472;2023-04-01T14:25:52;1.90;;;1.13;;
23714;SDS011;12036;50.858;4.472;2023-04-01T14:28:53;2.33;;;1.17;;
23714;SDS011;12036;50.858;4.472;2023-04-01T14:31:43;1.33;;;1.05;;
23714;SDS011;12036;50.858;4.472;2023-04-01T14:37:15;1.60;;;1.25;;
23714;SDS011;12036;50.858;4.472;2023-04-01T14:50:43;1.38;;;1.02;;
23714;SDS011;12036;50.858;4.472;2023-04-01T14:55:56;2.78;;;1.17;;
23714;SDS011;12036;50.858;4.472;2023-04-01T14:58:25;2.67;;;1.05;;
23714;SDS011;12036;50.858;4.472;2023-04-01T15:01:18;3.08;;;1.15;;
23714;SDS011;12036;50.858;4.472;2023-04-01T15:12:55;3.58;;;1.65;;
23714;SDS011;12036;50.858;4.472;2023-04-01T15:16:01;1.38;;;1.00;;
23714;SDS011;12036;50.858;4.472;2023-04-01T15:24:24;4.38;;;1.25;;
23714;SDS011;12036;50.858;4.472;2023-04-01T15:41:39;2.28;;;1.42;;
23714;SDS011;12036;50.858;4.472;2023-04-01T15:58:19;1.23;;;1.00;;
23714;SDS011;12036;50.858;4.472;2023-04-01T16:03:31;2.38;;;1.50;;
23714;SDS011;12036;50.858;4.472;2023-04-01T16:11:44;2.20;;;1.10;;
23714;SDS011;12036;50.858;4.472;2023-04-01T16:17:11;4.15;;;1.35;;
23714;SDS011;12036;50.858;4.472;2023-04-01T16:19:56;2.58;;;1.45;;
23714;SDS011;12036;50.858;4.472;2023-04-01T16:22:35;1.73;;;1.15;;
23714;SDS011;12036;50.858;4.472;2023-04-01T16:26:05;2.92;;;1.42;;
23714;SDS011;12036;50.858;4.472;2023-04-01T16:28:37;3.30;;;1.35;;
23714;SDS011;12036;50.858;4.472;2023-04-01T16:37:10;2.13;;;1.33;;
23714;SDS011;12036;50.858;4.472;2023-04-01T16:47:40;3.80;;;1.70;;
23714;SDS011;12036;50.858;4.472;2023-04-01T16:58:24;1.75;;;1.65;;
23714;SDS011;12036;50.858;4.472;2023-04-01T17:01:12;7.38;;;2.10;;
23714;SDS011;12036;50.858;4.472;2023-04-01T17:03:44;3.85;;;1.90;;
23714;SDS011;12036;50.858;4.472;2023-04-01T17:06:19;5.28;;;2.28;;
23714;SDS011;12036;50.858;4.472;2023-04-01T17:11:54;5.47;;;2.47;;
23714;SDS011;12036;50.858;4.472;2023-04-01T17:15:01;4.10;;;2.47;;
23714;SDS011;12036;50.858;4.472;2023-04-01T17:17:46;3.70;;;2.20;;
23714;SDS011;12036;50.858;4.472;2023-04-01T17:20:43;5.25;;;2.78;;
23714;SDS011;12036;50.858;4.472;2023-04-01T17:23:33;4.70;;;3.00;;
23714;SDS011;12036;50.858;4.472;2023-04-01T17:32:35;2.53;;;2.15;;
23714;SDS011;12036;50.858;4.472;2023-04-01T17:45:47;2.60;;;2.30;;
23714;SDS011;12036;50.858;4.472;2023-04-01T17:51:17;3.90;;;3.00;;
23714;SDS011;12036;50.858;4.472;2023-04-01T17:54:04;3.80;;;2.05;;
23714;SDS011;12036;50.858;4.472;2023-04-01T18:04:54;3.60;;;1.70;;
23714;SDS011;12036;50.858;4.472;2023-04-01T18:15:40;3.00;;;2.38;;
23714;SDS011;12036;50.858;4.472;2023-04-01T18:23:46;5.05;;;2.60;;
23714;SDS011;12036;50.858;4.472;2023-04-01T18:26:28;4.95;;;3.10;;
23714;SDS011;12036;50.858;4.472;2023-04-01T18:31:47;5.68;;;4.15;;
23714;SDS011;12036;50.858;4.472;2023-04-01T18:34:19;7.50;;;4.00;;
23714;SDS011;12036;50.858;4.472;2023-04-01T18:36:53;6.55;;;4.53;;
23714;SDS011;12036;50.858;4.472;2023-04-01T18:44:53;7.60;;;4.72;;
23714;SDS011;12036;50.858;4.472;2023-04-01T18:47:43;9.50;;;5.10;;
23714;SDS011;12036;50.858;4.472;2023-04-01T18:50:18;10.05;;;5.80;;
23714;SDS011;12036;50.858;4.472;2023-04-01T18:53:15;8.40;;;5.25;;
23714;SDS011;12036;50.858;4.472;2023-04-01T18:55:42;9.15;;;5.40;;
23714;SDS011;12036;50.858;4.472;2023-04-01T19:03:53;7.75;;;5.35;;
23714;SDS011;12036;50.858;4.472;2023-04-01T19:06:34;7.97;;;5.93;;
23714;SDS011;12036;50.858;4.472;2023-04-01T19:09:17;12.15;;;6.70;;
23714;SDS011;12036;50.858;4.472;2023-04-01T19:17:20;14.82;;;7.30;;
23714;SDS011;12036;50.858;4.472;2023-04-01T19:20:17;12.23;;;6.95;;
23714;SDS011;12036;50.858;4.472;2023-04-01T19:26:12;10.82;;;7.20;;
23714;SDS011;12036;50.858;4.472;2023-04-01T19:31:33;12.05;;;7.63;;
23714;SDS011;12036;50.858;4.472;2023-04-01T19:36:46;11.15;;;7.45;;
23714;SDS011;12036;50.858;4.472;2023-04-01T19:42:03;13.68;;;8.55;;
23714;SDS011;12036;50.858;4.472;2023-04-01T19:50:14;18.10;;;7.45;;
23714;SDS011;12036;50.858;4.472;2023-04-01T19:52:59;14.73;;;7.25;;
23714;SDS011;12036;50.858;4.472;2023-04-01T19:56:01;11.52;;;7.10;;
23714;SDS011;12036;50.858;4.472;2023-04-01T20:01:08;12.75;;;6.35;;
23714;SDS011;12036;50.858;4.472;2023-04-01T20:03:44;18.05;;;6.97;;
23714;SDS011;12036;50.858;4.472;2023-04-01T20:11:30;9.00;;;4.65;;
23714;SDS011;12036;50.858;4.472;2023-04-01T20:25:12;11.73;;;5.93;;
23714;SDS011;12036;50.858;4.472;2023-04-01T20:27:50;9.57;;;5.80;;
23714;SDS011;12036;50.858;4.472;2023-04-01T20:33:50;13.25;;;7.28;;
23714;SDS011;12036;50.858;4.472;2023-04-01T20:44:14;18.73;;;8.13;;
23714;SDS011;12036;50.858;4.472;2023-04-01T21:03:08;12.38;;;5.80;;
23714;SDS011;12036;50.858;4.472;2023-04-01T21:08:45;15.05;;;6.95;;
23714;SDS011;12036;50.858;4.472;2023-04-01T21:14:33;18.85;;;7.28;;
23714;SDS011;12036;50.858;4.472;2023-04-01T21:28:16;16.23;;;8.27;;
23714;SDS011;12036;50.858;4.472;2023-04-01T21:38:48;21.77;;;8.93;;
23714;SDS011;12036;50.858;4.472;2023-04-01T22:00:31;17.95;;;9.15;;
23714;SDS011;12036;50.858;4.472;2023-04-01T22:08:59;12.40;;;7.82;;
23714;SDS011;12036;50.858;4.472;2023-04-01T22:16:58;12.23;;;6.90;;
23714;SDS011;12036;50.858;4.472;2023-04-01T22:20:04;12.27;;;6.88;;
23714;SDS011;12036;50.858;4.472;2023-04-01T22:30:55;11.27;;;6.38;;
23714;SDS011;12036;50.858;4.472;2023-04-01T22:36:00;9.98;;;6.38;;
23714;SDS011;12036;50.858;4.472;2023-04-01T22:38:44;11.50;;;6.82;;
23714;SDS011;12036;50.858;4.472;2023-04-01T22:53:25;11.77;;;7.03;;
23714;SDS011;12036;50.858;4.472;2023-04-01T22:56:03;15.20;;;7.63;;
23714;SDS011;12036;50.858;4.472;2023-04-01T22:58:36;14.40;;;8.20;;
23714;SDS011;12036;50.858;4.472;2023-04-01T23:01:25;15.48;;;8.05;;
23714;SDS011;12036;50.858;4.472;2023-04-01T23:03:55;12.85;;;7.35;;
23714;SDS011;12036;50.858;4.472;2023-04-01T23:06:31;11.52;;;7.03;;
23714;SDS011;12036;50.858;4.472;2023-04-01T23:12:02;12.70;;;7.80;;
23714;SDS011;12036;50.858;4.472;2023-04-01T23:14:39;11.30;;;7.18;;
23714;SDS011;12036;50.858;4.472;2023-04-01T23:22:32;15.65;;;8.35;;
23714;SDS011;12036;50.858;4.472;2023-04-01T23:31:01;16.50;;;9.02;;
23714;SDS011;12036;50.858;4.472;2023-04-01T23:35:45;21.80;;;8.73;;
23714;SDS011;12036;50.858;4.472;2023-04-01T23:38:30;15.57;;;8.77;;
23714;SDS011;12036;50.858;4.472;2023-04-01T23:40:59;23.65;;;9.80;;
23714;SDS011;12036;50.858;4.472;2023-04-01T23:43:33;17.27;;;9.30;;
23714;SDS011;12036;50.858;4.472;2023-04-01T23:46:06;18.33;;;10.18;;
23714;SDS011;12036;50.858;4.472;2023-04-01T23:48:33;18.00;;;9.77;;
23714;SDS011;12036;50.858;4.472;2023-04-01T23:51:26;21.98;;;9.95;;
23714;SDS011;12036;50.858;4.472;2023-04-01T23:54:02;17.45;;;9.35;;
23714;SDS011;12036;50.858;4.472;2023-04-01T23:56:38;18.10;;;9.88;;
23714;SDS011;12036;50.858;4.472;2023-04-01T23:59:13;18.67;;;10.35;;
